Time;durP1;ratioP1;P1;durP2;ratioP2;P2;SDS_P1;SDS_P2;PMS_P1;PMS_P2;Temp;Humidity;BMP_temperature;BMP_pressure;BME280_temperature;BME280_humidity;BME280_pressure;Samples;Min_cycle;Max_cycle;Signal;HPM_P1;HPM_P2
2021/09/20 00:00:32;;;;;;;10.25;9.25;;;17.30;99.90;;;;;;5129379;28;20147;-69
2021/09/20 00:02:57;;;;;;;9.63;8.82;;;17.30;99.90;;;;;;5128774;28;20167;-69
2021/09/20 00:05:23;;;;;;;10.40;9.40;;;17.30;99.90;;;;;;5129281;28;20169;-69
2021/09/20 00:07:48;;;;;;;10.43;9.10;;;17.20;99.90;;;;;;5129173;28;20167;-69
2021/09/20 00:10:14;;;;;;;11.80;9.55;;;17.20;99.90;;;;;;5128956;28;20206;-69
2021/09/20 00:12:40;;;;;;;9.48;8.68;;;17.20;99.90;;;;;;5128832;28;20158;-69
2021/09/20 00:15:07;;;;;;;10.50;9.23;;;17.20;99.90;;;;;;5129194;28;20295;-69
2021/09/20 00:17:34;;;;;;;9.90;8.80;;;17.20;99.90;;;;;;5128068;28;20167;-69
2021/09/20 00:19:59;;;;;;;10.75;9.82;;;17.30;99.90;;;;;;5129032;28;20183;-69
2021/09/20 00:22:25;;;;;;;10.18;9.35;;;17.40;99.90;;;;;;5128830;28;20179;-69
2021/09/20 00:24:50;;;;;;;10.45;9.45;;;17.30;99.90;;;;;;5110408;28;20611;-69
2021/09/20 00:27:16;;;;;;;11.18;10.10;;;17.40;99.90;;;;;;5128772;28;20194;-69
2021/09/20 00:29:42;;;;;;;11.23;10.07;;;17.40;99.90;;;;;;5128928;28;20241;-69
2021/09/20 00:32:07;;;;;;;11.25;10.15;;;17.40;99.90;;;;;;5128144;28;20174;-69
2021/09/20 00:34:33;;;;;;;14.00;9.90;;;17.40;99.90;;;;;;5128511;28;20168;-69
2021/09/20 00:36:59;;;;;;;9.55;8.65;;;17.40;99.90;;;;;;5128631;28;20170;-69
2021/09/20 00:39:24;;;;;;;12.20;9.90;;;17.30;99.90;;;;;;5128508;28;20190;-69
2021/09/20 00:41:50;;;;;;;11.82;9.77;;;17.40;99.90;;;;;;5128554;28;20163;-69
2021/09/20 00:44:16;;;;;;;10.57;9.18;;;17.50;99.90;;;;;;5128291;28;20224;-69
2021/09/20 00:46:41;;;;;;;11.70;10.32;;;17.40;99.90;;;;;;5128246;28;20167;-69
2021/09/20 00:49:07;;;;;;;10.52;9.52;;;17.40;99.90;;;;;;5110317;28;20162;-69
2021/09/20 00:51:32;;;;;;;10.98;9.82;;;17.50;99.90;;;;;;5128436;28;20522;-69
2021/09/20 00:53:59;;;;;;;13.10;10.38;;;17.40;99.90;;;;;;5128109;28;20173;-69
2021/09/20 00:56:26;;;;;;;11.70;10.20;;;17.50;99.90;;;;;;5128434;28;20257;-69
2021/09/20 00:58:51;;;;;;;11.02;9.88;;;17.50;99.90;;;;;;5128015;28;20175;-69
2021/09/20 01:01:17;;;;;;;11.57;10.30;;;17.50;99.90;;;;;;5127541;28;20163;-69
2021/09/20 01:03:43;;;;;;;10.80;9.75;;;17.50;99.90;;;;;;5127998;28;20205;-69
2021/09/20 01:06:08;;;;;;;11.20;10.10;;;17.60;99.90;;;;;;5128214;28;20162;-69
2021/09/20 01:08:34;;;;;;;11.50;10.40;;;17.60;99.90;;;;;;5127986;28;20166;-69
2021/09/20 01:11:00;;;;;;;15.50;10.55;;;17.60;99.90;;;;;;5128056;28;20213;-69
2021/09/20 01:13:25;;;;;;;12.38;9.80;;;17.50;99.90;;;;;;5109571;28;20183;-69
2021/09/20 01:15:54;;;;;;;10.93;9.98;;;17.50;99.90;;;;;;5127741;28;20658;-69
2021/09/20 01:18:21;;;;;;;12.40;11.00;;;17.60;99.90;;;;;;5127679;28;20194;-69
2021/09/20 01:20:48;;;;;;;11.80;10.70;;;17.60;99.90;;;;;;5127884;28;20158;-69
2021/09/20 01:23:13;;;;;;;12.10;10.18;;;17.60;99.90;;;;;;5127660;28;20231;-69
2021/09/20 01:25:39;;;;;;;14.55;9.82;;;17.60;99.90;;;;;;5127956;28;20159;-69
2021/09/20 01:28:05;;;;;;;13.00;11.35;;;17.50;99.90;;;;;;5127677;28;20166;-69
2021/09/20 01:30:31;;;;;;;12.27;10.50;;;17.50;99.90;;;;;;5108427;28;20178;-69
2021/09/20 01:32:56;;;;;;;11.85;10.07;;;17.40;99.90;;;;;;5108626;28;20170;-69
2021/09/20 01:35:24;;;;;;;13.07;10.75;;;17.20;99.90;;;;;;5109240;28;20171;-69
2021/09/20 01:37:50;;;;;;;13.98;11.20;;;17.20;99.90;;;;;;5127532;28;20155;-69
2021/09/20 01:40:16;;;;;;;14.55;10.52;;;17.10;99.90;;;;;;5127561;28;20216;-69
2021/09/20 01:42:42;;;;;;;11.23;10.23;;;17.10;99.90;;;;;;5127066;28;20165;-69
2021/09/20 01:45:09;;;;;;;13.20;10.30;;;17.00;99.90;;;;;;5127461;28;20155;-68
2021/09/20 01:47:35;;;;;;;10.45;9.45;;;17.00;99.90;;;;;;5108745;28;20177;-69
2021/09/20 01:50:01;;;;;;;10.98;9.88;;;16.90;99.90;;;;;;5109257;28;20166;-69
2021/09/20 01:52:27;;;;;;;11.43;10.02;;;16.80;99.90;;;;;;5109061;28;20204;-69
2021/09/20 01:54:53;;;;;;;12.57;9.43;;;16.70;99.90;;;;;;5127037;28;20163;-69
2021/09/20 01:57:22;;;;;;;10.48;9.57;;;16.60;99.90;;;;;;5126999;28;20169;-69
2021/09/20 01:59:49;;;;;;;11.10;9.52;;;16.50;99.90;;;;;;5127259;28;20194;-69
2021/09/20 02:02:14;;;;;;;10.00;9.00;;;16.50;99.90;;;;;;5126747;28;20170;-69
2021/09/20 02:04:40;;;;;;;13.27;8.80;;;16.40;99.90;;;;;;5126929;28;20165;-69
2021/09/20 02:07:05;;;;;;;11.05;9.45;;;16.30;99.90;;;;;;5127090;28;20159;-69
2021/09/20 02:09:31;;;;;;;14.07;9.40;;;16.30;99.90;;;;;;5126907;28;20210;-69
2021/09/20 02:11:57;;;;;;;12.35;9.57;;;16.30;99.90;;;;;;5126959;28;20184;-69
2021/09/20 02:14:22;;;;;;;10.63;9.52;;;16.30;99.90;;;;;;5126695;28;20171;-69
2021/09/20 02:16:48;;;;;;;11.15;10.15;;;16.20;99.90;;;;;;5126517;28;20170;-69
2021/09/20 02:19:14;;;;;;;11.50;10.30;;;16.20;99.90;;;;;;5108693;28;20182;-69
2021/09/20 02:21:40;;;;;;;10.50;9.40;;;16.20;99.90;;;;;;5127001;28;20155;-69
2021/09/20 02:24:06;;;;;;;10.55;9.45;;;16.20;99.90;;;;;;5126692;28;20646;-69
2021/09/20 02:26:32;;;;;;;12.02;9.55;;;16.20;99.90;;;;;;5126867;28;20155;-69
2021/09/20 02:28:57;;;;;;;11.75;10.55;;;16.20;99.90;;;;;;5126812;28;20162;-69
2021/09/20 02:31:23;;;;;;;10.73;9.73;;;16.20;99.90;;;;;;5126454;28;20181;-69
2021/09/20 02:33:49;;;;;;;11.43;10.32;;;16.10;99.90;;;;;;5126418;28;20173;-69
2021/09/20 02:36:15;;;;;;;10.25;9.32;;;16.20;99.90;;;;;;5126632;28;20696;-69
2021/09/20 02:38:40;;;;;;;11.48;10.27;;;16.20;99.90;;;;;;5108183;28;20195;-69
2021/09/20 02:41:06;;;;;;;13.07;10.13;;;16.20;99.90;;;;;;5128214;28;20159;-69
2021/09/20 02:43:33;;;;;;;14.90;10.02;;;16.10;99.90;;;;;;5130525;28;20178;-69
2021/09/20 02:45:59;;;;;;;11.60;10.10;;;16.10;99.90;;;;;;5130591;28;20471;-69
2021/09/20 02:48:25;;;;;;;15.55;9.95;;;16.10;99.90;;;;;;5130759;28;20173;-69
2021/09/20 02:50:50;;;;;;;12.63;9.95;;;16.10;99.90;;;;;;5130656;28;20237;-69
2021/09/20 02:53:16;;;;;;;10.90;9.90;;;16.10;99.90;;;;;;5130435;28;20262;-69
2021/09/20 02:55:43;;;;;;;16.20;9.85;;;16.10;99.90;;;;;;5130726;28;20633;-69
2021/09/20 02:58:08;;;;;;;11.00;9.90;;;16.10;99.90;;;;;;5130478;28;20190;-70
2021/09/20 03:00:34;;;;;;;11.40;10.13;;;16.10;99.90;;;;;;5130707;28;20159;-69
2021/09/20 03:03:01;;;;;;;10.40;9.50;;;16.00;99.90;;;;;;5129762;28;20173;-69
2021/09/20 03:05:26;;;;;;;11.18;10.02;;;15.90;99.90;;;;;;5130456;28;20162;-69
2021/09/20 03:07:52;;;;;;;11.30;10.23;;;15.90;99.90;;;;;;5130369;28;20162;-69
2021/09/20 03:10:18;;;;;;;16.70;10.02;;;15.90;99.90;;;;;;5130086;28;20210;-69
2021/09/20 03:12:43;;;;;;;15.75;9.50;;;15.80;99.90;;;;;;5111863;28;20163;-69
2021/09/20 03:15:09;;;;;;;12.88;9.82;;;15.90;99.90;;;;;;5130088;28;20166;-69
2021/09/20 03:17:35;;;;;;;11.95;9.70;;;15.80;99.90;;;;;;5129866;28;20170;-69
2021/09/20 03:20:01;;;;;;;13.20;9.77;;;15.70;99.90;;;;;;5111919;28;20256;-69
2021/09/20 03:22:27;;;;;;;12.77;9.60;;;15.60;99.90;;;;;;5130000;28;20177;-69
2021/09/20 03:24:53;;;;;;;11.52;10.02;;;15.60;99.90;;;;;;5111649;28;20224;-69
2021/09/20 03:27:19;;;;;;;16.23;9.95;;;15.70;99.90;;;;;;5130260;28;20158;-69
2021/09/20 03:29:45;;;;;;;14.15;9.63;;;15.60;99.90;;;;;;5130017;28;20190;-69
2021/09/20 03:32:10;;;;;;;10.98;9.07;;;15.60;99.90;;;;;;5129798;28;20163;-69
2021/09/20 03:34:36;;;;;;;12.75;9.48;;;15.50;99.90;;;;;;5129684;28;20650;-69
2021/09/20 03:37:02;;;;;;;10.35;9.32;;;15.50;99.90;;;;;;5129894;28;20169;-69
2021/09/20 03:39:28;;;;;;;12.60;9.80;;;15.50;99.90;;;;;;5129601;28;20178;-68
2021/09/20 03:41:53;;;;;;;12.68;9.32;;;15.40;99.90;;;;;;5129747;28;20552;-69
2021/09/20 03:44:19;;;;;;;12.95;10.23;;;15.30;99.90;;;;;;5129417;28;20167;-69
2021/09/20 03:46:45;;;;;;;11.80;9.73;;;15.30;99.90;;;;;;5129114;28;20171;-69
2021/09/20 03:49:10;;;;;;;12.52;9.63;;;15.20;99.90;;;;;;5129916;28;20151;-69
2021/09/20 03:51:36;;;;;;;11.55;9.35;;;15.20;99.90;;;;;;5128954;28;20216;-68
2021/09/20 03:54:02;;;;;;;10.32;9.32;;;15.20;99.90;;;;;;5128440;28;20166;-69
2021/09/20 03:56:27;;;;;;;11.77;9.40;;;15.20;99.90;;;;;;5111200;28;20170;-69
2021/09/20 03:58:54;;;;;;;10.25;9.02;;;15.20;99.90;;;;;;5129297;28;20202;-69
2021/09/20 04:01:20;;;;;;;10.93;9.40;;;15.20;99.90;;;;;;5129016;28;20170;-68
2021/09/20 04:03:45;;;;;;;11.10;9.77;;;15.30;99.90;;;;;;5129052;28;20239;-68
2021/09/20 04:06:11;;;;;;;10.88;9.75;;;15.10;99.90;;;;;;5129290;28;20163;-69
2021/09/20 04:08:36;;;;;;;13.10;10.23;;;15.20;99.90;;;;;;5129065;28;20173;-69
2021/09/20 04:11:02;;;;;;;12.88;10.32;;;15.20;99.90;;;;;;5129079;28;20236;-69
2021/09/20 04:13:28;;;;;;;11.70;10.18;;;15.10;99.90;;;;;;5110544;28;20196;-68
2021/09/20 04:15:54;;;;;;;10.88;9.85;;;15.10;99.90;;;;;;5129213;28;20159;-69
2021/09/20 04:18:25;;;;;;;18.85;12.60;;;15.00;99.90;;;;;;5128529;28;20186;-69
2021/09/20 04:20:51;;;;;;;19.73;11.63;;;15.10;99.90;;;;;;5128947;28;20166;-68
2021/09/20 04:23:19;;;;;;;13.57;10.65;;;15.00;99.90;;;;;;5128807;28;20509;-68
2021/09/20 04:25:46;;;;;;;13.25;11.60;;;15.00;99.90;;;;;;5128908;28;20151;-69
2021/09/20 04:28:11;;;;;;;15.75;11.95;;;15.10;99.90;;;;;;5110329;28;20166;-68
2021/09/20 04:30:37;;;;;;;14.80;12.50;;;15.00;99.90;;;;;;5110489;28;20185;-69
2021/09/20 04:33:03;;;;;;;19.30;14.57;;;15.10;99.90;;;;;;5128084;28;20174;-69
2021/09/20 04:35:29;;;;;;;28.70;14.15;;;15.20;99.90;;;;;;5128788;28;20244;-69
2021/09/20 04:37:55;;;;;;;19.13;13.68;;;15.30;99.90;;;;;;5128669;28;20163;-69
2021/09/20 04:40:20;;;;;;;17.35;13.80;;;15.30;99.90;;;;;;5128557;28;20161;-69
2021/09/20 04:42:46;;;;;;;21.08;14.63;;;15.20;99.90;;;;;;5110111;28;20155;-69
2021/09/20 04:45:12;;;;;;;17.63;14.63;;;15.30;99.90;;;;;;5128325;28;20171;-69
2021/09/20 04:47:38;;;;;;;19.45;14.52;;;15.20;99.90;;;;;;5109724;28;20178;-69
2021/09/20 04:50:04;;;;;;;20.50;15.02;;;15.20;99.90;;;;;;5128570;28;20155;-69
2021/09/20 04:52:30;;;;;;;18.75;14.88;;;15.20;99.90;;;;;;5128304;28;20169;-69
2021/09/20 04:54:56;;;;;;;21.50;14.63;;;15.10;99.90;;;;;;5109768;28;20242;-69
2021/09/20 04:57:21;;;;;;;16.65;14.70;;;15.10;99.90;;;;;;5128277;28;20200;-69
2021/09/20 04:59:47;;;;;;;20.48;14.77;;;15.10;99.90;;;;;;5128083;28;20193;-69
2021/09/20 05:02:12;;;;;;;20.33;15.45;;;15.10;99.90;;;;;;5127753;28;20242;-69
2021/09/20 05:04:38;;;;;;;18.88;15.23;;;15.10;99.90;;;;;;5127444;28;20200;-69
2021/09/20 05:07:04;;;;;;;18.70;15.40;;;15.10;99.90;;;;;;5128171;28;20644;-69
2021/09/20 05:09:30;;;;;;;23.60;15.77;;;15.10;99.90;;;;;;5127564;28;20214;-69
2021/09/20 05:11:56;;;;;;;24.50;15.32;;;15.30;99.90;;;;;;5127982;28;20151;-69
2021/09/20 05:14:21;;;;;;;23.60;15.65;;;15.30;99.90;;;;;;5127608;28;20254;-68
2021/09/20 05:16:47;;;;;;;19.60;15.77;;;15.40;99.90;;;;;;5109315;28;20665;-69
2021/09/20 05:19:13;;;;;;;25.30;16.45;;;15.40;99.90;;;;;;5127876;28;20183;-69
2021/09/20 05:21:38;;;;;;;25.30;15.38;;;15.40;99.90;;;;;;5127802;28;20163;-69
2021/09/20 05:24:04;;;;;;;21.40;15.57;;;15.40;99.90;;;;;;5109141;28;20182;-69
2021/09/20 05:26:30;;;;;;;23.02;16.98;;;15.40;99.90;;;;;;5127708;28;20165;-68
2021/09/20 05:28:56;;;;;;;22.73;15.00;;;15.30;99.90;;;;;;5127440;28;20249;-69
2021/09/20 05:31:21;;;;;;;18.92;14.82;;;15.40;99.90;;;;;;5126832;28;20173;-69
2021/09/20 05:33:47;;;;;;;22.20;15.48;;;15.30;99.90;;;;;;5127141;28;20211;-69
2021/09/20 05:36:13;;;;;;;18.45;14.18;;;15.40;99.90;;;;;;5109132;28;20166;-69
2021/09/20 05:38:38;;;;;;;19.55;14.63;;;15.40;99.90;;;;;;5126944;28;20515;-69
2021/09/20 05:41:04;;;;;;;18.88;13.75;;;15.50;99.90;;;;;;5126721;28;20173;-69
2021/09/20 05:43:30;;;;;;;17.10;14.52;;;15.50;99.90;;;;;;5126899;28;20188;-69
2021/09/20 05:45:56;;;;;;;17.02;14.05;;;15.50;99.90;;;;;;5109035;28;20232;-69
2021/09/20 05:48:21;;;;;;;16.55;13.63;;;15.60;99.90;;;;;;5127091;28;20184;-69
2021/09/20 05:50:48;;;;;;;16.42;14.77;;;15.60;99.90;;;;;;5127194;28;20250;-69
2021/09/20 05:53:14;;;;;;;23.80;14.15;;;15.60;99.90;;;;;;5108808;28;20173;-69
2021/09/20 05:55:40;;;;;;;16.15;12.73;;;15.60;99.90;;;;;;5127182;28;20166;-69
2021/09/20 05:58:06;;;;;;;16.92;12.75;;;15.60;99.90;;;;;;5127122;28;20174;-69
2021/09/20 06:00:32;;;;;;;15.20;13.07;;;15.60;99.90;;;;;;5127131;28;20158;-69
2021/09/20 06:02:58;;;;;;;19.13;13.63;;;15.70;99.90;;;;;;5126620;28;20169;-68
2021/09/20 06:05:23;;;;;;;17.98;14.38;;;15.70;99.90;;;;;;5126851;28;20173;-69
2021/09/20 06:07:49;;;;;;;15.95;13.82;;;15.90;99.90;;;;;;5126969;28;20221;-69
2021/09/20 06:10:16;;;;;;;14.55;12.90;;;15.80;99.90;;;;;;5126771;28;20238;-69
2021/09/20 06:12:42;;;;;;;19.85;13.65;;;15.80;99.90;;;;;;5126898;28;20165;-69
2021/09/20 06:15:10;;;;;;;23.00;13.05;;;15.90;99.90;;;;;;5126149;28;20170;-69
2021/09/20 06:17:36;;;;;;;15.90;13.98;;;15.80;99.90;;;;;;5126404;28;20238;-69
2021/09/20 06:20:03;;;;;;;15.15;13.45;;;15.90;99.90;;;;;;5108434;28;20186;-69
2021/09/20 06:22:28;;;;;;;17.38;14.40;;;15.90;99.90;;;;;;5126642;28;20241;-69
2021/09/20 06:24:56;;;;;;;16.02;12.77;;;15.90;99.90;;;;;;5126608;28;20169;-69
2021/09/20 06:27:22;;;;;;;14.55;12.82;;;16.00;99.90;;;;;;5126695;28;20162;-69
2021/09/20 06:29:48;;;;;;;17.80;12.63;;;16.10;99.90;;;;;;5126439;28;20166;-69
2021/09/20 06:32:13;;;;;;;14.68;13.02;;;16.20;99.90;;;;;;5126189;28;20167;-69
2021/09/20 06:34:39;;;;;;;14.27;12.77;;;16.20;99.90;;;;;;5108096;28;20215;-69
2021/09/20 06:37:05;;;;;;;21.17;12.93;;;16.30;99.90;;;;;;5126600;28;20191;-69
2021/09/20 06:39:30;;;;;;;24.75;14.00;;;16.40;99.90;;;;;;5126644;28;20186;-69
2021/09/20 06:41:56;;;;;;;18.27;12.32;;;16.50;99.90;;;;;;5108159;28;20212;-69
2021/09/20 06:44:22;;;;;;;18.75;13.27;;;16.50;99.90;;;;;;5126264;28;20166;-69
2021/09/20 06:46:47;;;;;;;17.02;12.60;;;16.50;99.90;;;;;;5126190;28;20178;-69
2021/09/20 06:49:15;;;;;;;17.58;13.45;;;16.40;99.90;;;;;;5126527;28;20166;-69
2021/09/20 06:51:40;;;;;;;14.18;12.68;;;16.40;99.90;;;;;;5126339;28;20651;-69
2021/09/20 06:54:06;;;;;;;16.45;12.27;;;16.40;99.90;;;;;;5126198;28;20174;-69
2021/09/20 06:56:32;;;;;;;14.13;12.18;;;16.40;99.90;;;;;;5126482;28;20646;-69
2021/09/20 06:58:58;;;;;;;16.70;12.93;;;16.40;99.90;;;;;;5126377;28;20187;-68
2021/09/20 07:01:23;;;;;;;18.65;13.68;;;16.30;99.90;;;;;;5126194;28;20166;-68
2021/09/20 07:03:49;;;;;;;18.45;13.85;;;16.40;99.90;;;;;;5126014;28;20395;-68
2021/09/20 07:06:15;;;;;;;25.05;13.00;;;16.50;99.90;;;;;;5126025;28;20166;-67
2021/09/20 07:08:40;;;;;;;18.52;13.93;;;16.70;99.90;;;;;;5126114;28;20226;-67
2021/09/20 07:11:06;;;;;;;17.05;13.25;;;16.60;99.90;;;;;;5126092;28;20215;-68
2021/09/20 07:13:31;;;;;;;17.70;13.57;;;16.70;99.90;;;;;;5125555;28;20167;-69
2021/09/20 07:15:57;;;;;;;18.48;14.63;;;16.60;99.90;;;;;;5126382;28;20249;-68
2021/09/20 07:18:23;;;;;;;16.75;13.40;;;16.50;99.90;;;;;;5126027;28;20201;-68
2021/09/20 07:20:49;;;;;;;18.42;13.35;;;16.60;99.90;;;;;;5126070;28;20165;-68
2021/09/20 07:23:16;;;;;;;29.88;14.25;;;16.60;99.90;;;;;;5126187;28;20154;-68
2021/09/20 07:25:41;;;;;;;19.70;13.57;;;16.70;99.90;;;;;;5126166;28;20200;-68
2021/09/20 07:28:07;;;;;;;16.42;13.88;;;16.50;99.90;;;;;;5129534;28;20158;-68
2021/09/20 07:30:33;;;;;;;19.83;13.57;;;16.70;99.90;;;;;;5129912;28;20159;-68
2021/09/20 07:32:59;;;;;;;24.88;14.73;;;16.60;99.90;;;;;;5110503;28;20175;-68
2021/09/20 07:35:25;;;;;;;20.10;14.32;;;16.70;99.90;;;;;;5129257;28;20175;-68
2021/09/20 07:37:54;;;;;;;22.50;15.20;;;16.70;99.90;;;;;;5129952;28;20163;-68
2021/09/20 07:40:25;;;;;;;19.85;14.10;;;16.50;99.90;;;;;;5129541;28;20191;-68
2021/09/20 07:42:52;;;;;;;21.58;14.48;;;16.80;99.90;;;;;;5129535;28;20198;-68
2021/09/20 07:45:18;;;;;;;22.02;14.57;;;16.70;99.90;;;;;;5129480;28;20193;-68
2021/09/20 07:47:47;;;;;;;20.23;14.68;;;16.70;99.90;;;;;;5128943;28;20232;-68
2021/09/20 07:50:16;;;;;;;25.50;14.88;;;16.80;99.90;;;;;;5128965;28;20166;-68
2021/09/20 07:52:43;;;;;;;26.58;14.25;;;16.80;99.90;;;;;;5129110;28;20219;-68
2021/09/20 07:55:09;;;;;;;19.25;14.52;;;16.80;99.90;;;;;;5128943;28;20170;-68
2021/09/20 07:57:34;;;;;;;18.65;13.85;;;16.70;99.90;;;;;;5129438;28;20169;-68
2021/09/20 08:00:01;;;;;;;24.67;13.93;;;16.80;99.90;;;;;;5129235;28;20222;-68
2021/09/20 08:02:26;;;;;;;15.57;13.30;;;16.90;99.90;;;;;;5128512;28;20235;-68
2021/09/20 08:04:52;;;;;;;22.23;14.35;;;17.00;99.90;;;;;;5128901;28;20174;-68
2021/09/20 08:07:18;;;;;;;18.05;14.02;;;17.00;99.90;;;;;;5129233;28;20167;-68
2021/09/20 08:09:44;;;;;;;18.33;13.57;;;17.20;99.90;;;;;;5129059;28;20210;-68
2021/09/20 08:12:09;;;;;;;22.42;13.48;;;17.40;99.90;;;;;;5129415;28;20567;-68
2021/09/20 08:14:35;;;;;;;17.80;13.32;;;17.50;99.90;;;;;;5128593;28;20167;-68
2021/09/20 08:17:01;;;;;;;17.67;13.88;;;17.50;99.90;;;;;;5128744;28;20174;-68
2021/09/20 08:19:27;;;;;;;17.77;13.93;;;17.70;99.90;;;;;;5129148;28;20191;-68
2021/09/20 08:21:53;;;;;;;15.73;13.23;;;17.90;99.90;;;;;;5110251;28;20190;-68
2021/09/20 08:24:18;;;;;;;18.52;12.73;;;18.00;99.90;;;;;;5128521;28;20159;-67
2021/09/20 08:26:44;;;;;;;14.48;12.98;;;18.20;99.90;;;;;;5128766;28;20166;-68
2021/09/20 08:29:10;;;;;;;13.93;12.43;;;18.30;99.90;;;;;;5110023;28;20499;-68
2021/09/20 08:31:36;;;;;;;16.90;13.35;;;18.40;99.90;;;;;;5109916;28;20230;-68
2021/09/20 08:34:01;;;;;;;20.17;13.43;;;18.40;99.90;;;;;;5128450;28;20184;-68
2021/09/20 08:36:28;;;;;;;17.33;12.88;;;18.40;99.90;;;;;;5128574;28;20163;-68
2021/09/20 08:38:54;;;;;;;18.23;13.30;;;18.40;99.90;;;;;;5127823;28;20194;-67
2021/09/20 08:41:19;;;;;;;16.40;12.43;;;18.60;99.90;;;;;;5128892;28;20161;-68
2021/09/20 08:43:45;;;;;;;15.60;13.10;;;18.80;99.90;;;;;;5128197;28;20182;-68
2021/09/20 08:46:12;;;;;;;14.90;12.55;;;18.90;99.90;;;;;;5128341;28;20155;-68
2021/09/20 08:48:43;;;;;;;14.70;13.07;;;18.70;99.90;;;;;;5127331;28;20166;-68
2021/09/20 08:51:10;;;;;;;24.15;13.00;;;18.80;99.90;;;;;;5109909;28;20265;-68
2021/09/20 08:53:36;;;;;;;16.80;12.35;;;18.80;99.90;;;;;;5128128;28;20171;-67
2021/09/20 08:56:03;;;;;;;13.88;12.30;;;18.80;99.90;;;;;;5128008;28;20253;-68
2021/09/20 08:58:29;;;;;;;18.13;12.38;;;18.90;99.90;;;;;;5128089;28;20190;-68
2021/09/20 09:00:55;;;;;;;17.52;12.73;;;18.90;99.90;;;;;;5109897;28;20171;-68
2021/09/20 09:03:22;;;;;;;12.05;10.80;;;18.90;99.90;;;;;;5127953;28;20155;-68
2021/09/20 09:05:49;;;;;;;12.30;11.10;;;19.00;99.90;;;;;;5127987;28;20167;-68
2021/09/20 09:08:18;;;;;;;12.43;11.13;;;19.20;99.90;;;;;;5109744;28;20170;-68
2021/09/20 09:10:57;;;;;;;17.40;12.13;;;19.30;99.90;;;;;;5127893;28;20272;-68
2021/09/20 09:13:36;;;;;;;15.60;11.80;;;19.50;99.90;;;;;;5127866;28;20159;-68
2021/09/20 09:16:23;;;;;;;13.07;11.77;;;19.40;99.90;;;;;;5127841;28;20174;-68
2021/09/20 09:18:57;;;;;;;12.80;11.30;;;19.40;99.90;;;;;;5127457;28;20190;-68
2021/09/20 09:21:28;;;;;;;18.90;11.23;;;19.40;99.90;;;;;;5127071;28;20165;-68
2021/09/20 09:24:00;;;;;;;12.70;11.45;;;19.40;99.90;;;;;;5127673;28;20644;-68
2021/09/20 09:26:26;;;;;;;16.52;12.05;;;19.40;99.90;;;;;;5127483;28;20157;-68
2021/09/20 09:28:53;;;;;;;12.80;10.52;;;19.50;99.90;;;;;;5109161;28;20591;-68
2021/09/20 09:31:18;;;;;;;13.48;11.45;;;19.60;99.90;;;;;;5127655;28;20163;-68
2021/09/20 09:33:45;;;;;;;14.93;11.30;;;19.60;99.90;;;;;;5126711;28;20171;-69
2021/09/20 09:36:14;;;;;;;16.88;11.60;;;19.80;99.90;;;;;;5109065;28;20557;-68
2021/09/20 09:38:57;;;;;;;13.15;11.10;;;19.90;99.90;;;;;;5127094;28;20201;-68
2021/09/20 09:41:42;;;;;;;13.48;11.48;;;20.00;99.90;;;;;;5127278;28;20150;-68
2021/09/20 09:44:13;;;;;;;16.75;12.10;;;20.00;99.90;;;;;;5126994;28;20281;-68
2021/09/20 09:46:44;;;;;;;17.50;11.20;;;20.00;99.90;;;;;;5127013;28;20514;-68
2021/09/20 09:49:21;;;;;;;14.80;12.05;;;20.00;99.90;;;;;;5127140;28;20143;-68
2021/09/20 09:52:09;;;;;;;14.20;10.27;;;20.00;99.90;;;;;;5107684;28;20178;-68
2021/09/20 09:54:37;;;;;;;11.63;10.52;;;20.10;99.90;;;;;;5126945;28;20167;-68
2021/09/20 09:57:22;;;;;;;11.10;10.00;;;20.10;99.90;;;;;;5127043;28;20167;-68
2021/09/20 10:00:04;;;;;;;14.73;9.18;;;20.40;99.90;;;;;;5126783;28;20240;-68
2021/09/20 10:02:35;;;;;;;9.98;8.85;;;20.30;99.90;;;;;;5108388;28;20312;-68
2021/09/20 10:05:03;;;;;;;12.27;8.35;;;20.30;99.90;;;;;;5126621;28;20707;-68
2021/09/20 10:07:34;;;;;;;13.60;9.05;;;20.40;99.90;;;;;;5143027;27;20167;-68
2021/09/20 10:10:05;;;;;;;13.52;9.13;;;20.50;99.90;;;;;;5126612;28;20739;-68
2021/09/20 10:12:31;;;;;;;10.20;9.18;;;20.70;99.90;;;;;;5126508;28;20192;-68
2021/09/20 10:14:59;;;;;;;24.20;10.18;;;20.90;99.90;;;;;;5126202;28;20194;-68
2021/09/20 10:17:26;;;;;;;15.65;10.48;;;21.20;99.90;;;;;;5108371;28;20175;-68
2021/09/20 10:19:53;;;;;;;15.07;10.40;;;21.30;99.90;;;;;;5126574;28;20182;-69
2021/09/20 10:22:19;;;;;;;13.40;10.20;;;21.40;99.90;;;;;;5126276;28;20180;-68
2021/09/20 10:24:48;;;;;;;14.90;9.60;;;21.40;99.90;;;;;;5126217;28;20673;-68
2021/09/20 10:27:17;;;;;;;12.68;9.15;;;21.10;99.90;;;;;;5125800;28;20155;-67
2021/09/20 10:29:48;;;;;;;13.05;9.82;;;21.00;99.90;;;;;;5126343;28;20163;-68
2021/09/20 10:32:15;;;;;;;14.68;10.32;;;21.40;99.90;;;;;;5107950;28;20198;-68
2021/09/20 10:34:40;;;;;;;12.57;9.68;;;21.50;99.90;;;;;;5126237;28;20170;-68
2021/09/20 10:37:16;;;;;;;13.15;9.93;;;21.50;99.90;;;;;;5127037;28;20166;-68
2021/09/20 10:40:07;;;;;;;16.33;11.07;;;21.50;99.90;;;;;;5126322;28;20198;-68
2021/09/20 10:42:35;;;;;;;13.60;10.82;;;21.60;99.90;;;;;;5125720;28;20143;-68
2021/09/20 10:45:07;;;;;;;14.65;10.40;;;21.60;99.90;;;;;;5107809;28;20280;-68
2021/09/20 10:47:45;;;;;;;21.02;10.07;;;21.70;99.90;;;;;;5125889;28;20631;-68
2021/09/20 10:50:12;;;;;;;19.20;10.65;;;21.90;99.90;;;;;;5126180;28;20162;-68
2021/09/20 10:53:20;;;;;;;14.57;10.48;;;22.00;99.90;;;;;;5126321;28;20165;-68
2021/09/20 10:56:08;;;;;;;17.88;10.40;;;22.10;99.90;;;;;;5126190;28;20167;-68
2021/09/20 10:58:54;;;;;;;21.23;11.88;;;22.20;99.90;;;;;;5116100;28;20217;-68
2021/09/20 11:01:19;;;;;;;13.18;10.50;;;22.00;99.90;;;;;;5125178;28;20175;-68
2021/09/20 11:03:51;;;;;;;12.68;10.45;;;22.00;99.90;;;;;;5129949;28;20167;-68
2021/09/20 11:06:28;;;;;;;14.88;11.05;;;22.20;99.90;;;;;;5129967;28;20626;-68
2021/09/20 11:09:03;;;;;;;14.10;10.13;;;22.10;99.90;;;;;;5130285;28;20182;-68
2021/09/20 11:14:19;;;;;;;18.63;10.52;;;22.50;99.90;;;;;;5129869;28;20178;-68
2021/09/20 11:16:56;;;;;;;12.38;10.50;;;22.40;99.90;;;;;;5129289;28;20157;-68
2021/09/20 11:19:24;;;;;;;10.65;9.38;;;22.50;99.90;;;;;;5129853;28;20182;-68
2021/09/20 11:22:05;;;;;;;12.50;10.00;;;22.40;99.90;;;;;;5129816;28;20167;-68
2021/09/20 11:24:36;;;;;;;13.85;9.73;;;22.40;99.90;;;;;;5129531;28;20163;-68
2021/09/20 11:27:04;;;;;;;16.63;9.48;;;22.40;99.90;;;;;;5129842;28;20151;-68
2021/09/20 11:29:30;;;;;;;9.93;8.25;;;22.60;99.90;;;;;;5129666;28;20181;-68
2021/09/20 11:31:56;;;;;;;14.30;9.75;;;22.70;99.90;;;;;;5129245;28;20169;-68
2021/09/20 11:34:34;;;;;;;11.55;8.55;;;23.00;99.90;;;;;;5129424;28;20159;-68
2021/09/20 11:37:22;;;;;;;11.10;8.73;;;23.30;99.90;;;;;;5129406;28;20170;-68
2021/09/20 11:39:58;;;;;;;11.15;8.20;;;23.40;99.90;;;;;;5145131;27;20190;-67
2021/09/20 11:42:51;;;;;;;8.77;7.97;;;23.20;99.90;;;;;;5145203;27;20158;-67
2021/09/20 11:45:19;;;;;;;11.10;7.85;;;23.20;99.90;;;;;;5101867;28;20189;-67
2021/09/20 11:47:49;;;;;;;10.38;8.25;;;23.60;99.90;;;;;;5129089;28;20175;-67
2021/09/20 11:50:26;;;;;;;10.48;8.13;;;23.80;99.90;;;;;;5129493;28;20228;-67
2021/09/20 11:52:57;;;;;;;12.80;9.00;;;24.00;99.90;;;;;;5129258;28;20196;-67
2021/09/20 11:55:26;;;;;;;11.70;8.02;;;24.10;99.90;;;;;;5129011;28;20178;-67
2021/09/20 11:57:54;;;;;;;14.52;7.95;;;24.00;99.90;;;;;;5129582;28;20155;-67
2021/09/20 12:00:23;;;;;;;13.88;9.50;;;23.70;99.90;;;;;;5128921;28;20227;-68
2021/09/20 12:02:50;;;;;;;10.68;8.25;;;23.10;99.90;;;;;;5110239;28;20170;-68
2021/09/20 12:05:34;;;;;;;9.40;7.95;;;23.00;99.90;;;;;;5128954;28;20171;-68
2021/09/20 12:08:06;;;;;;;10.60;8.15;;;23.50;99.90;;;;;;5129195;28;20177;-68
2021/09/20 12:10:35;;;;;;;10.73;9.05;;;23.60;99.90;;;;;;5128855;28;20211;-68
2021/09/20 12:13:04;;;;;;;15.00;10.48;;;23.60;99.90;;;;;;5127611;28;20159;-68
2021/09/20 12:15:35;;;;;;;10.32;9.13;;;23.60;99.90;;;;;;5109928;28;20213;-69
2021/09/20 12:18:13;;;;;;;17.33;9.07;;;23.70;99.90;;;;;;5128426;28;20166;-68
2021/09/20 12:20:46;;;;;;;11.50;8.93;;;23.70;99.90;;;;;;5110773;28;20166;-68
2021/09/20 12:23:16;;;;;;;10.48;9.15;;;23.70;99.90;;;;;;5128604;28;20211;-68
2021/09/20 12:25:56;;;;;;;13.48;9.23;;;23.90;99.90;;;;;;5109798;28;20199;-68
2021/09/20 12:28:27;;;;;;;11.48;8.52;;;23.60;99.90;;;;;;5128671;28;20151;-68
2021/09/20 12:30:53;;;;;;;13.23;8.40;;;23.90;99.90;;;;;;5128422;28;20162;-68
2021/09/20 12:33:19;;;;;;;10.07;9.10;;;23.90;99.90;;;;;;5128128;28;20249;-69
2021/09/20 12:35:44;;;;;;;11.13;8.90;;;24.10;99.90;;;;;;5128203;28;20239;-68